Lake, MS (39092)

8:57 AM CST on February 09, 2016 (GMT -0600)
WTOK-TV Decatur | | Change Station
CLOSE
Current Station
Personal Weather Station
Location: Decatur, MS
Elevation: 449 ft
Nearby Weather Stations
Active Advisory: Wind Advisory

Elev 449 ft 32.44 °N, 89.11 °W | Updated 9 minutes ago

Clear
Clear
38.1 °F
Feels Like 30 °F
N
13.0
Wind Variable Wind from NW

Today
High -- | Low -- °F
--% Chance of Precip.
Yesterday
High -- | Low -- °F
Precip. -- in
Pressure 30.05 in
Visibility 10.0 miles
Clouds Clear
Windchill 30 °F
Dew Point 20 °F
Humidity 49%
Rainfall 0.00 in
Snow Depth Not available.
6:45 AM 5:37 PM
New Moon, 1% visible
METAR KMEI 091358Z 29007G16KT 10SM CLR 01/M07 A3005 RMK AO2 SLP176 T00111067
Pressure 30.05 in
Visibility 10.0 miles
Clouds Clear
Windchill 30 °F
Dew Point 20 °F
Humidity 49%
Rainfall 0.00 in
Snow Depth Not available.
6:45 AM 5:37 PM
New Moon, 1% visible
METAR KMEI 091358Z 29007G16KT 10SM CLR 01/M07 A3005 RMK AO2 SLP176 T00111067

10-Day Weather Forecast

Almanac

Astronomy

Feb. 09, 2016 Rise Set
Actual Time
Civil Twilight
Nautical Twilight
Astronomical Twilight
Moon
Length of Visible Light
Length of Day
Tomorrow will be .
, % of the Moon is Illuminated

Today's Extremes

State Highs State Lows

Community

WunderPhotos

Upload Photos

1,891,614 photos uploaded!

WunderBlog® & News

Nearby

Air Quality

  Air Quality AQ Index Pollutant
Not available.

Snow Depth

Station Depth Elevation

Earthquake Activity

City Distance Mag. Time & Date
Minimum magnitude displayed is 2.5.

Coastal Water Temperatures

Place Temperature

Stations

Nearby Weather Stations

Station Location Temp. Windchill Dew Point Humidity Wind Precip. Elev Updated Type
                   

Watches & Warnings

Wind Advisory
Issued: 3:08 AM CST Feb. 9, 2016 – National Weather Service

... Wind Advisory in effect from 10 am this morning to 6 PM CST
this evening...

The National Weather Service in Jackson has issued a Wind
Advisory... which is in effect from 10 am this morning to 6 PM CST
this evening.

* Timing... 10 am until 6 PM

* winds... 20 to 30 mph with gusts around 40 mph

* impacts... these winds can knock down rotten trees and affect
travel in high profile vehicles

Precautionary/preparedness actions...

A Wind Advisory means that winds of 20 to 30 mph are expected. Winds
this strong can make driving difficult... especially for high profile
vehicles. Use extra caution when driving.

Wind gusts around 40 mph can occasionally bring down large limbs and
rotten trees causing serious injury and property damage. Exercise
caution when outdoors during these conditions.



26